4XCAD LLBS-LLMZ
Flight info
| Callsign | 4XCAD |
|---|---|
| Flight time | 0h 33m |
| Altitude | 4000 |
| Route | LLBS NCITY OMMER SOKET MYTAR TARAD ARRAD LLMZ |
| Aircraft | C172/L-V/N |
Departure
| Time | 2026-05-06 18:16 |
|---|---|
| Airport | Beersheba (Teyman) Airport (LLBS) |
Arrival
| Time | 2026-05-06 18:49 |
|---|---|
| Airport | Bar Yehuda Airfield (LLMZ) |
| Time | Latitude | Longitude | Altitude | Speed | Heading |
|---|---|---|---|---|---|
| 2026-05-06 18:08 | 31.28417 | 34.72668 | 658 ft | 0 kts | 227° |
| 2026-05-06 18:13 | 31.28412 | 34.72665 | 658 ft | 3 kts | 199° |
| 2026-05-06 18:13 | 31.28352 | 34.72722 | 659 ft | 17 kts | 148° |
| 2026-05-06 18:13 | 31.28323 | 34.72728 | 660 ft | 0 kts | 204° |
| 2026-05-06 18:15 | 31.28318 | 34.72725 | 660 ft | 6 kts | 204° |
| 2026-05-06 18:15 | 31.28361 | 34.72635 | 658 ft | 33 kts | 317° |
| 2026-05-06 18:15 | 31.28680 | 34.72305 | 721 ft | 76 kts | 318° |
| 2026-05-06 18:16 | 31.29060 | 34.71891 | 1006 ft | 74 kts | 313° |
| 2026-05-06 18:16 | 31.29374 | 34.71406 | 1255 ft | 76 kts | 309° |
| 2026-05-06 18:16 | 31.29822 | 34.71105 | 1492 ft | 80 kts | 354° |
| 2026-05-06 18:16 | 31.30323 | 34.71321 | 1749 ft | 80 kts | 37° |
| 2026-05-06 18:17 | 31.30719 | 34.71700 | 2036 ft | 75 kts | 49° |
| 2026-05-06 18:17 | 31.31103 | 34.72156 | 2178 ft | 80 kts | 41° |
| 2026-05-06 18:17 | 31.31502 | 34.72528 | 2442 ft | 71 kts | 34° |
| 2026-05-06 18:17 | 31.31883 | 34.72992 | 2537 ft | 80 kts | 69° |
| 2026-05-06 18:18 | 31.31739 | 34.73597 | 2664 ft | 87 kts | 139° |
| 2026-05-06 18:18 | 31.31254 | 34.74010 | 2739 ft | 83 kts | 146° |
| 2026-05-06 18:18 | 31.30741 | 34.74368 | 2707 ft | 85 kts | 150° |
| 2026-05-06 18:18 | 31.30313 | 34.74785 | 2670 ft | 77 kts | 122° |
| 2026-05-06 18:19 | 31.30164 | 34.75385 | 2562 ft | 78 kts | 98° |
| 2026-05-06 18:19 | 31.30070 | 34.76047 | 2499 ft | 87 kts | 101° |
| 2026-05-06 18:19 | 31.29921 | 34.76751 | 2550 ft | 86 kts | 109° |
| 2026-05-06 18:19 | 31.29607 | 34.77348 | 2570 ft | 89 kts | 125° |
| 2026-05-06 18:20 | 31.29304 | 34.77968 | 2616 ft | 87 kts | 114° |
| 2026-05-06 18:20 | 31.29048 | 34.78609 | 2629 ft | 87 kts | 117° |
| 2026-05-06 18:20 | 31.28723 | 34.79240 | 2592 ft | 90 kts | 122° |
| 2026-05-06 18:20 | 31.28486 | 34.79906 | 2826 ft | 87 kts | 112° |
| 2026-05-06 18:21 | 31.28237 | 34.80545 | 2982 ft | 87 kts | 115° |
| 2026-05-06 18:21 | 31.27962 | 34.81216 | 2990 ft | 91 kts | 117° |
| 2026-05-06 18:21 | 31.27681 | 34.81865 | 3054 ft | 90 kts | 117° |
| 2026-05-06 18:21 | 31.27405 | 34.82529 | 3094 ft | 91 kts | 115° |
| 2026-05-06 18:22 | 31.27345 | 34.83212 | 3241 ft | 86 kts | 71° |
| 2026-05-06 18:22 | 31.27608 | 34.83861 | 3439 ft | 90 kts | 61° |
| 2026-05-06 18:22 | 31.27905 | 34.84486 | 3459 ft | 94 kts | 60° |
| 2026-05-06 18:22 | 31.28234 | 34.85147 | 3577 ft | 86 kts | 59° |
| 2026-05-06 18:23 | 31.28562 | 34.85772 | 3539 ft | 96 kts | 59° |
| 2026-05-06 18:23 | 31.28871 | 34.86422 | 3642 ft | 87 kts | 63° |
| 2026-05-06 18:23 | 31.29155 | 34.87078 | 3637 ft | 92 kts | 63° |
| 2026-05-06 18:23 | 31.29439 | 34.87751 | 3656 ft | 93 kts | 64° |
| 2026-05-06 18:24 | 31.29746 | 34.88429 | 3685 ft | 93 kts | 59° |
| 2026-05-06 18:24 | 31.30081 | 34.89067 | 3682 ft | 93 kts | 58° |
| 2026-05-06 18:24 | 31.30419 | 34.89732 | 3621 ft | 94 kts | 61° |
| 2026-05-06 18:24 | 31.30635 | 34.90445 | 3590 ft | 94 kts | 77° |
| 2026-05-06 18:25 | 31.30762 | 34.91193 | 3554 ft | 93 kts | 80° |
| 2026-05-06 18:25 | 31.30838 | 34.91950 | 3512 ft | 94 kts | 85° |
| 2026-05-06 18:25 | 31.30920 | 34.92705 | 3501 ft | 93 kts | 77° |
| 2026-05-06 18:25 | 31.31093 | 34.93437 | 3474 ft | 93 kts | 75° |
| 2026-05-06 18:26 | 31.31096 | 34.94173 | 3482 ft | 90 kts | 103° |
| 2026-05-06 18:26 | 31.30906 | 34.94891 | 3440 ft | 94 kts | 110° |
| 2026-05-06 18:26 | 31.30672 | 34.95588 | 3480 ft | 90 kts | 112° |
| 2026-05-06 18:26 | 31.30435 | 34.96282 | 3460 ft | 93 kts | 108° |
| 2026-05-06 18:27 | 31.30257 | 34.96997 | 3486 ft | 91 kts | 105° |
| 2026-05-06 18:27 | 31.30094 | 34.97721 | 3479 ft | 92 kts | 105° |
| 2026-05-06 18:27 | 31.29906 | 34.98433 | 3492 ft | 92 kts | 109° |
| 2026-05-06 18:27 | 31.29726 | 34.99151 | 3498 ft | 91 kts | 104° |
| 2026-05-06 18:28 | 31.29561 | 34.99871 | 3501 ft | 92 kts | 105° |
| 2026-05-06 18:28 | 31.29384 | 35.00589 | 3513 ft | 91 kts | 105° |
| 2026-05-06 18:28 | 31.29214 | 35.01315 | 3514 ft | 92 kts | 105° |
| 2026-05-06 18:28 | 31.29040 | 35.02032 | 3525 ft | 91 kts | 105° |
| 2026-05-06 18:29 | 31.28884 | 35.02756 | 3530 ft | 92 kts | 104° |
| 2026-05-06 18:29 | 31.28707 | 35.03475 | 3537 ft | 92 kts | 106° |
| 2026-05-06 18:29 | 31.28536 | 35.04207 | 3543 ft | 92 kts | 104° |
| 2026-05-06 18:29 | 31.28374 | 35.04929 | 3551 ft | 92 kts | 105° |
| 2026-05-06 18:30 | 31.28205 | 35.05650 | 3557 ft | 92 kts | 104° |
| 2026-05-06 18:30 | 31.28071 | 35.06381 | 3563 ft | 92 kts | 99° |
| 2026-05-06 18:30 | 31.27984 | 35.07122 | 3570 ft | 92 kts | 98° |
| 2026-05-06 18:30 | 31.27877 | 35.07859 | 3572 ft | 92 kts | 101° |
| 2026-05-06 18:31 | 31.27745 | 35.08596 | 3572 ft | 92 kts | 101° |
| 2026-05-06 18:31 | 31.27627 | 35.09333 | 3576 ft | 92 kts | 99° |
| 2026-05-06 18:31 | 31.27565 | 35.10081 | 3563 ft | 93 kts | 90° |
| 2026-05-06 18:31 | 31.27682 | 35.10825 | 3544 ft | 93 kts | 71° |
| 2026-05-06 18:32 | 31.27887 | 35.11532 | 3546 ft | 92 kts | 72° |
| 2026-05-06 18:32 | 31.28050 | 35.12258 | 3533 ft | 92 kts | 82° |
| 2026-05-06 18:32 | 31.27996 | 35.12999 | 3516 ft | 93 kts | 106° |
| 2026-05-06 18:32 | 31.27788 | 35.13726 | 3508 ft | 92 kts | 110° |
| 2026-05-06 18:33 | 31.27528 | 35.14411 | 3490 ft | 93 kts | 115° |
| 2026-05-06 18:33 | 31.27285 | 35.15108 | 3486 ft | 92 kts | 109° |
| 2026-05-06 18:33 | 31.27072 | 35.15818 | 3470 ft | 93 kts | 109° |
| 2026-05-06 18:33 | 31.26844 | 35.16522 | 3483 ft | 92 kts | 112° |
| 2026-05-06 18:34 | 31.26596 | 35.17216 | 3479 ft | 93 kts | 112° |
| 2026-05-06 18:34 | 31.26349 | 35.17910 | 3487 ft | 92 kts | 112° |
| 2026-05-06 18:34 | 31.26091 | 35.18590 | 3486 ft | 92 kts | 116° |
| 2026-05-06 18:34 | 31.25787 | 35.19253 | 3493 ft | 92 kts | 118° |
| 2026-05-06 18:35 | 31.25512 | 35.19936 | 3640 ft | 91 kts | 105° |
| 2026-05-06 18:35 | 31.25489 | 35.20667 | 3860 ft | 92 kts | 83° |
| 2026-05-06 18:35 | 31.25632 | 35.21377 | 4034 ft | 85 kts | 71° |
| 2026-05-06 18:35 | 31.25871 | 35.22069 | 4002 ft | 94 kts | 65° |
| 2026-05-06 18:36 | 31.26146 | 35.22742 | 4026 ft | 92 kts | 64° |
| 2026-05-06 18:36 | 31.26397 | 35.23449 | 4005 ft | 93 kts | 68° |
| 2026-05-06 18:36 | 31.26632 | 35.24147 | 4006 ft | 93 kts | 69° |
| 2026-05-06 18:36 | 31.26853 | 35.24860 | 4003 ft | 93 kts | 70° |
| 2026-05-06 18:37 | 31.27057 | 35.25576 | 3992 ft | 93 kts | 72° |
| 2026-05-06 18:37 | 31.27242 | 35.26302 | 3993 ft | 93 kts | 74° |
| 2026-05-06 18:37 | 31.27402 | 35.27034 | 3983 ft | 93 kts | 76° |
| 2026-05-06 18:37 | 31.27543 | 35.27772 | 3983 ft | 93 kts | 77° |
| 2026-05-06 18:38 | 31.27711 | 35.28503 | 3973 ft | 93 kts | 73° |
| 2026-05-06 18:38 | 31.27899 | 35.29213 | 3919 ft | 85 kts | 71° |
| 2026-05-06 18:38 | 31.28070 | 35.29780 | 3798 ft | 69 kts | 70° |
| 2026-05-06 18:38 | 31.28235 | 35.30310 | 3598 ft | 70 kts | 71° |
| 2026-05-06 18:39 | 31.28387 | 35.30854 | 3405 ft | 70 kts | 72° |
| 2026-05-06 18:39 | 31.28530 | 35.31398 | 3212 ft | 70 kts | 74° |
| 2026-05-06 18:39 | 31.28647 | 35.31942 | 3034 ft | 65 kts | 75° |
| 2026-05-06 18:40 | 31.28927 | 35.32972 | 2631 ft | 68 kts | 71° |
| 2026-05-06 18:40 | 31.29064 | 35.33506 | 2447 ft | 69 kts | 75° |
| 2026-05-06 18:40 | 31.29179 | 35.34054 | 2272 ft | 68 kts | 77° |
| 2026-05-06 18:40 | 31.29285 | 35.34593 | 2101 ft | 68 kts | 75° |
| 2026-05-06 18:41 | 31.29424 | 35.35120 | 1932 ft | 68 kts | 73° |
| 2026-05-06 18:41 | 31.29553 | 35.35653 | 1761 ft | 68 kts | 73° |
| 2026-05-06 18:41 | 31.29704 | 35.36176 | 1593 ft | 68 kts | 71° |
| 2026-05-06 18:41 | 31.29868 | 35.36689 | 1430 ft | 67 kts | 66° |
| 2026-05-06 18:42 | 31.30080 | 35.37177 | 1268 ft | 67 kts | 58° |
| 2026-05-06 18:42 | 31.30346 | 35.37624 | 1105 ft | 67 kts | 52° |
| 2026-05-06 18:42 | 31.30645 | 35.38042 | 945 ft | 67 kts | 45° |
| 2026-05-06 18:42 | 31.31014 | 35.38370 | 783 ft | 67 kts | 27° |
| 2026-05-06 18:43 | 31.31452 | 35.38546 | 627 ft | 67 kts | 13° |
| 2026-05-06 18:43 | 31.31907 | 35.38638 | 474 ft | 66 kts | 7° |
| 2026-05-06 18:43 | 31.32365 | 35.38703 | 319 ft | 66 kts | 6° |
| 2026-05-06 18:43 | 31.32821 | 35.38762 | 168 ft | 66 kts | 5° |
| 2026-05-06 18:44 | 31.33277 | 35.38810 | 21 ft | 65 kts | 4° |
| 2026-05-06 18:44 | 31.33732 | 35.38856 | -123 ft | 66 kts | 5° |
| 2026-05-06 18:44 | 31.34117 | 35.39096 | -216 ft | 67 kts | 57° |
| 2026-05-06 18:44 | 31.34108 | 35.39617 | -280 ft | 67 kts | 106° |
| 2026-05-06 18:45 | 31.34028 | 35.40138 | -388 ft | 68 kts | 96° |
| 2026-05-06 18:45 | 31.33985 | 35.40667 | -403 ft | 64 kts | 95° |
| 2026-05-06 18:45 | 31.33778 | 35.41114 | -394 ft | 65 kts | 152° |
| 2026-05-06 18:45 | 31.33317 | 35.41132 | -407 ft | 68 kts | 188° |
| 2026-05-06 18:46 | 31.32857 | 35.41060 | -377 ft | 66 kts | 184° |
| 2026-05-06 18:46 | 31.32395 | 35.41035 | -361 ft | 67 kts | 180° |
| 2026-05-06 18:46 | 31.31935 | 35.41072 | -384 ft | 67 kts | 175° |
| 2026-05-06 18:46 | 31.31448 | 35.41069 | -461 ft | 70 kts | 182° |
| 2026-05-06 18:47 | 31.30956 | 35.41036 | -520 ft | 70 kts | 182° |
| 2026-05-06 18:47 | 31.30474 | 35.40986 | -575 ft | 70 kts | 198° |
| 2026-05-06 18:47 | 31.30169 | 35.40567 | -657 ft | 72 kts | 258° |
| 2026-05-06 18:47 | 31.30221 | 35.39983 | -731 ft | 71 kts | 283° |
| 2026-05-06 18:48 | 31.30367 | 35.39433 | -781 ft | 70 kts | 288° |
| 2026-05-06 18:48 | 31.30523 | 35.38899 | -822 ft | 68 kts | 292° |
| 2026-05-06 18:48 | 31.30851 | 35.38534 | -858 ft | 69 kts | 341° |
| 2026-05-06 18:48 | 31.31332 | 35.38540 | -976 ft | 70 kts | 8° |
| 2026-05-06 18:49 | 31.31793 | 35.38644 | -1106 ft | 65 kts | 13° |
| 2026-05-06 18:49 | 31.32218 | 35.38736 | -1213 ft | 59 kts | 9° |
| 2026-05-06 18:49 | 31.32585 | 35.38805 | -1252 ft | 42 kts | 9° |
| 2026-05-06 18:49 | 31.32814 | 35.38853 | -1241 ft | 26 kts | 9° |
| 2026-05-06 18:50 | 31.32919 | 35.38843 | -1237 ft | 10 kts | 311° |
| 2026-05-06 18:50 | 31.32929 | 35.38824 | -1235 ft | 4 kts | 288° |
| 2026-05-06 18:50 | 31.32938 | 35.38783 | -1233 ft | 0 kts | 87° |
| 2026-05-06 18:50 | 31.32938 | 35.38784 | -1233 ft | 0 kts | 80° |
| 2026-05-06 19:07 | 31.32946 | 35.38815 | -1234 ft | 0 kts | 73° |
| 2026-05-06 19:07 | 31.32952 | 35.38834 | -1235 ft | 5 kts | 66° |
| 2026-05-06 19:08 | 31.32952 | 35.38835 | -1235 ft | 0 kts | 67° |
| 2026-05-06 19:08 | 31.32953 | 35.38838 | -1235 ft | 0 kts | 66° |
| 2026-05-06 19:10 | 31.32958 | 35.38849 | -1235 ft | 7 kts | 62° |
| 2026-05-06 19:10 | 31.33056 | 35.38907 | -1235 ft | 24 kts | 11° |
| 2026-05-06 19:10 | 31.33242 | 35.38952 | -1232 ft | 11 kts | 9° |
| 2026-05-06 19:10 | 31.33174 | 35.38934 | -1233 ft | 41 kts | 190° |
| 2026-05-06 19:11 | 31.32717 | 35.38834 | -1099 ft | 76 kts | 186° |
| 2026-05-06 19:11 | 31.32203 | 35.38804 | -792 ft | 77 kts | 181° |
| 2026-05-06 19:11 | 31.31667 | 35.38793 | -471 ft | 76 kts | 180° |
| 2026-05-06 19:11 | 31.31139 | 35.38798 | -182 ft | 78 kts | 178° |
| 2026-05-06 19:12 | 31.30611 | 35.38829 | 124 ft | 77 kts | 176° |
| 2026-05-06 19:12 | 31.30075 | 35.38868 | 411 ft | 78 kts | 175° |
| 2026-05-06 19:12 | 31.29538 | 35.38921 | 699 ft | 79 kts | 173° |
| 2026-05-06 19:12 | 31.28996 | 35.39005 | 988 ft | 78 kts | 172° |
| 2026-05-06 19:13 | 31.28457 | 35.39037 | 1250 ft | 81 kts | 188° |
| 2026-05-06 19:13 | 31.27934 | 35.38835 | 1543 ft | 78 kts | 200° |
| 2026-05-06 19:13 | 31.27411 | 35.38643 | 1789 ft | 81 kts | 193° |
| 2026-05-06 19:13 | 31.26861 | 35.38537 | 2074 ft | 79 kts | 185° |
| 2026-05-06 19:14 | 31.26304 | 35.38470 | 2323 ft | 81 kts | 188° |
| 2026-05-06 19:14 | 31.25758 | 35.38376 | 2580 ft | 81 kts | 185° |
| 2026-05-06 19:14 | 31.25226 | 35.38220 | 2833 ft | 81 kts | 213° |
| 2026-05-06 19:14 | 31.24989 | 35.37636 | 3029 ft | 87 kts | 272° |
| 2026-05-06 19:15 | 31.25042 | 35.36965 | 3332 ft | 79 kts | 278° |
| 2026-05-06 19:15 | 31.25085 | 35.36301 | 3538 ft | 84 kts | 269° |
| 2026-05-06 19:15 | 31.25078 | 35.35643 | 3789 ft | 82 kts | 270° |
| 2026-05-06 19:15 | 31.25069 | 35.34973 | 3996 ft | 77 kts | 266° |
| 2026-05-06 19:16 | 31.25002 | 35.34291 | 3990 ft | 87 kts | 263° |
| 2026-05-06 19:16 | 31.24948 | 35.33629 | 4084 ft | 81 kts | 265° |
| 2026-05-06 19:16 | 31.24912 | 35.32954 | 4111 ft | 85 kts | 266° |
| 2026-05-06 19:16 | 31.24883 | 35.32252 | 4149 ft | 88 kts | 267° |
| 2026-05-06 19:17 | 31.24869 | 35.31520 | 4154 ft | 93 kts | 269° |
| 2026-05-06 19:17 | 31.24871 | 35.30759 | 4144 ft | 94 kts | 271° |
| 2026-05-06 19:17 | 31.24897 | 35.29981 | 4118 ft | 94 kts | 272° |
| 2026-05-06 19:17 | 31.24931 | 35.29216 | 4068 ft | 96 kts | 274° |
| 2026-05-06 19:18 | 31.24980 | 35.28447 | 4064 ft | 93 kts | 274° |
| 2026-05-06 19:18 | 31.25014 | 35.27678 | 4010 ft | 96 kts | 272° |
| 2026-05-06 19:18 | 31.25045 | 35.26913 | 4017 ft | 93 kts | 273° |
| 2026-05-06 19:18 | 31.25079 | 35.26144 | 3966 ft | 96 kts | 272° |
| 2026-05-06 19:19 | 31.25100 | 35.25377 | 3973 ft | 93 kts | 270° |
| 2026-05-06 19:19 | 31.25073 | 35.24600 | 3941 ft | 95 kts | 266° |
| 2026-05-06 19:19 | 31.25027 | 35.23841 | 3947 ft | 94 kts | 265° |
| 2026-05-06 19:19 | 31.24982 | 35.23067 | 3936 ft | 95 kts | 267° |
| 2026-05-06 19:20 | 31.24958 | 35.22304 | 3946 ft | 94 kts | 268° |
| 2026-05-06 19:20 | 31.24962 | 35.21534 | 3944 ft | 95 kts | 272° |
| 2026-05-06 19:20 | 31.25027 | 35.20768 | 3980 ft | 94 kts | 277° |
| 2026-05-06 19:20 | 31.25115 | 35.20016 | 3997 ft | 94 kts | 278° |
| 2026-05-06 19:21 | 31.25277 | 35.19281 | 4024 ft | 94 kts | 291° |
| 2026-05-06 19:21 | 31.25572 | 35.18587 | 4045 ft | 94 kts | 299° |
| 2026-05-06 19:21 | 31.25870 | 35.17905 | 4068 ft | 94 kts | 293° |
| 2026-05-06 19:21 | 31.26072 | 35.17174 | 4093 ft | 96 kts | 283° |
| 2026-05-06 19:22 | 31.26238 | 35.16434 | 4212 ft | 92 kts | 290° |
| 2026-05-06 19:22 | 31.26488 | 35.15722 | 4293 ft | 95 kts | 292° |
| 2026-05-06 19:22 | 31.26703 | 35.15003 | 4440 ft | 93 kts | 286° |
| 2026-05-06 19:22 | 31.26893 | 35.14276 | 4526 ft | 88 kts | 291° |
| 2026-05-06 19:23 | 31.27170 | 35.13648 | 4451 ft | 86 kts | 308° |
| 2026-05-06 19:23 | 31.27682 | 35.13496 | 4365 ft | 86 kts | 23° |
| 2026-05-06 19:23 | 31.28052 | 35.14002 | 4276 ft | 82 kts | 78° |
| 2026-05-06 19:23 | 31.27840 | 35.14588 | 4132 ft | 86 kts | 146° |
| 2026-05-06 19:24 | 31.27298 | 35.14509 | 3994 ft | 88 kts | 231° |
| 2026-05-06 19:24 | 31.27152 | 35.13753 | 3773 ft | 102 kts | 275° |
| 2026-05-06 19:24 | 31.27229 | 35.13006 | 3879 ft | 89 kts | 279° |
| 2026-05-06 19:24 | 31.27323 | 35.12246 | 3849 ft | 95 kts | 277° |
| 2026-05-06 19:25 | 31.27400 | 35.11485 | 3884 ft | 94 kts | 276° |
| 2026-05-06 19:25 | 31.27480 | 35.10725 | 3918 ft | 94 kts | 277° |
| 2026-05-06 19:25 | 31.27567 | 35.09974 | 3960 ft | 94 kts | 277° |
| 2026-05-06 19:25 | 31.27655 | 35.09207 | 4003 ft | 94 kts | 277° |
| 2026-05-06 19:26 | 31.27731 | 35.08454 | 4038 ft | 94 kts | 276° |
| 2026-05-06 19:26 | 31.27783 | 35.07690 | 4070 ft | 94 kts | 273° |
| 2026-05-06 19:26 | 31.27810 | 35.06920 | 4095 ft | 94 kts | 271° |
| 2026-05-06 19:26 | 31.27823 | 35.06158 | 4121 ft | 94 kts | 270° |
| 2026-05-06 19:27 | 31.27791 | 35.05391 | 4148 ft | 94 kts | 264° |
| 2026-05-06 19:27 | 31.27800 | 35.04631 | 4168 ft | 95 kts | 279° |
| 2026-05-06 19:27 | 31.27953 | 35.03872 | 4202 ft | 94 kts | 284° |
| 2026-05-06 19:27 | 31.28185 | 35.03173 | 4189 ft | 94 kts | 298° |
| 2026-05-06 19:28 | 31.28523 | 35.02512 | 4165 ft | 93 kts | 303° |
| 2026-05-06 19:28 | 31.28916 | 35.01898 | 4124 ft | 95 kts | 310° |
| 2026-05-06 19:28 | 31.29366 | 35.01327 | 4109 ft | 93 kts | 314° |
| 2026-05-06 19:28 | 31.29819 | 35.00785 | 4076 ft | 94 kts | 313° |
| 2026-05-06 19:29 | 31.30164 | 35.00157 | 4085 ft | 90 kts | 292° |
| 2026-05-06 19:29 | 31.30397 | 34.99458 | 4023 ft | 91 kts | 299° |
| 2026-05-06 19:29 | 31.30737 | 34.98812 | 3920 ft | 93 kts | 303° |
| 2026-05-06 19:29 | 31.31118 | 34.98203 | 3825 ft | 93 kts | 307° |
| 2026-05-06 19:30 | 31.31493 | 34.97586 | 3718 ft | 93 kts | 304° |
| 2026-05-06 19:30 | 31.31885 | 34.96981 | 3604 ft | 94 kts | 310° |
| 2026-05-06 19:30 | 31.32309 | 34.96408 | 3494 ft | 94 kts | 309° |
| 2026-05-06 19:30 | 31.32727 | 34.95813 | 3446 ft | 94 kts | 315° |
| 2026-05-06 19:31 | 31.33272 | 34.95436 | 3455 ft | 92 kts | 347° |
| 2026-05-06 19:31 | 31.33879 | 34.95570 | 3438 ft | 92 kts | 36° |
| 2026-05-06 19:31 | 31.34227 | 34.96949 | 3510 ft | 94 kts | 106° |
| 2026-05-06 19:32 | 31.33818 | 34.97531 | 3649 ft | 94 kts | 157° |
| 2026-05-06 19:32 | 31.33188 | 34.97463 | 3802 ft | 97 kts | 214° |
| 2026-05-06 19:32 | 31.32747 | 34.96874 | 3962 ft | 92 kts | 231° |
| 2026-05-06 19:32 | 31.32363 | 34.96278 | 3940 ft | 97 kts | 234° |
| 2026-05-06 19:33 | 31.32025 | 34.95601 | 3983 ft | 92 kts | 246° |
| 2026-05-06 19:33 | 31.31834 | 34.94878 | 3970 ft | 97 kts | 255° |
| 2026-05-06 19:33 | 31.31660 | 34.94136 | 4087 ft | 91 kts | 255° |
| 2026-05-06 19:33 | 31.31513 | 34.93401 | 4102 ft | 95 kts | 258° |
| 2026-05-06 19:34 | 31.31373 | 34.92655 | 4144 ft | 93 kts | 256° |
| 2026-05-06 19:34 | 31.31235 | 34.91895 | 4122 ft | 95 kts | 260° |
| 2026-05-06 19:34 | 31.31106 | 34.91149 | 4137 ft | 93 kts | 255° |
| 2026-05-06 19:34 | 31.30847 | 34.90436 | 4086 ft | 96 kts | 239° |
| 2026-05-06 19:35 | 31.30503 | 34.89799 | 4019 ft | 93 kts | 238° |
| 2026-05-06 19:35 | 31.30169 | 34.89141 | 3912 ft | 94 kts | 240° |
| 2026-05-06 19:35 | 31.29851 | 34.88474 | 3801 ft | 95 kts | 241° |
| 2026-05-06 19:35 | 31.29539 | 34.87802 | 3705 ft | 93 kts | 242° |
| 2026-05-06 19:36 | 31.29228 | 34.87143 | 3595 ft | 92 kts | 239° |
| 2026-05-06 19:36 | 31.28902 | 34.86507 | 3473 ft | 92 kts | 241° |
| 2026-05-06 19:36 | 31.28590 | 34.85874 | 3308 ft | 91 kts | 238° |
| 2026-05-06 19:36 | 31.28241 | 34.85254 | 3127 ft | 90 kts | 237° |
| 2026-05-06 19:37 | 31.27910 | 34.84631 | 3016 ft | 90 kts | 240° |
| 2026-05-06 19:37 | 31.27579 | 34.84002 | 2947 ft | 92 kts | 240° |
| 2026-05-06 19:37 | 31.27434 | 34.83292 | 3092 ft | 95 kts | 276° |
| 2026-05-06 19:37 | 31.27559 | 34.82789 | 3238 ft | 95 kts | 290° |
| 2026-05-06 19:38 | 31.27787 | 34.81875 | 3475 ft | 94 kts | 290° |
| 2026-05-06 19:38 | 31.28067 | 34.81153 | 3536 ft | 92 kts | 295° |
| 2026-05-06 19:38 | 31.28309 | 34.80455 | 3524 ft | 95 kts | 289° |
| 2026-05-06 19:38 | 31.28522 | 34.79731 | 3545 ft | 92 kts | 291° |
| 2026-05-06 19:39 | 31.28739 | 34.79028 | 3496 ft | 90 kts | 282° |
| 2026-05-06 19:39 | 31.28741 | 34.78276 | 3280 ft | 94 kts | 264° |
| 2026-05-06 19:39 | 31.28697 | 34.77519 | 3104 ft | 93 kts | 268° |
| 2026-05-06 19:39 | 31.28694 | 34.76762 | 2887 ft | 94 kts | 274° |
| 2026-05-06 19:40 | 31.28793 | 34.76005 | 2685 ft | 92 kts | 282° |
| 2026-05-06 19:40 | 31.28935 | 34.75277 | 2475 ft | 93 kts | 283° |
| 2026-05-06 19:40 | 31.29038 | 34.74549 | 2270 ft | 90 kts | 277° |
| 2026-05-06 19:40 | 31.29111 | 34.73829 | 2037 ft | 89 kts | 279° |
| 2026-05-06 19:41 | 31.29286 | 34.73133 | 1803 ft | 88 kts | 291° |
| 2026-05-06 19:41 | 31.29408 | 34.72476 | 1788 ft | 81 kts | 272° |
| 2026-05-06 19:41 | 31.29348 | 34.71787 | 1760 ft | 80 kts | 259° |
| 2026-05-06 19:41 | 31.29217 | 34.71111 | 1571 ft | 100 kts | 257° |
| 2026-05-06 19:42 | 31.29222 | 34.70372 | 1598 ft | 88 kts | 299° |
| 2026-05-06 19:42 | 31.29664 | 34.69865 | 1466 ft | 96 kts | 334° |
| 2026-05-06 19:42 | 31.30222 | 34.69947 | 1498 ft | 85 kts | 31° |
| 2026-05-06 19:42 | 31.30639 | 34.70440 | 1430 ft | 83 kts | 59° |
| 2026-05-06 19:43 | 31.30900 | 34.71069 | 1407 ft | 88 kts | 66° |
| 2026-05-06 19:43 | 31.31135 | 34.71707 | 1475 ft | 88 kts | 66° |
| 2026-05-06 19:43 | 31.31395 | 34.72371 | 1522 ft | 89 kts | 64° |
| 2026-05-06 19:43 | 31.31669 | 34.73031 | 1540 ft | 91 kts | 63° |
| 2026-05-06 19:44 | 31.31986 | 34.73662 | 1572 ft | 88 kts | 61° |
| 2026-05-06 19:44 | 31.32014 | 34.74331 | 1544 ft | 88 kts | 121° |
| 2026-05-06 19:44 | 31.31474 | 34.74709 | 1436 ft | 95 kts | 161° |
| 2026-05-06 19:44 | 31.30889 | 34.74971 | 1483 ft | 88 kts | 158° |
| 2026-05-06 19:45 | 31.30301 | 34.75241 | 1460 ft | 92 kts | 159° |
| 2026-05-06 19:45 | 31.29734 | 34.75471 | 1520 ft | 77 kts | 162° |
| 2026-05-06 19:45 | 31.29217 | 34.75640 | 1431 ft | 78 kts | 165° |
| 2026-05-06 19:45 | 31.28698 | 34.75820 | 1349 ft | 77 kts | 162° |
| 2026-05-06 19:46 | 31.28176 | 34.75824 | 1287 ft | 76 kts | 204° |
| 2026-05-06 19:46 | 31.27797 | 34.75333 | 1137 ft | 80 kts | 237° |
| 2026-05-06 19:46 | 31.27510 | 34.74807 | 1007 ft | 75 kts | 237° |
| 2026-05-06 19:46 | 31.27238 | 34.74303 | 909 ft | 73 kts | 240° |
| 2026-05-06 19:47 | 31.27179 | 34.73775 | 950 ft | 64 kts | 301° |
| 2026-05-06 19:47 | 31.27561 | 34.73455 | 890 ft | 70 kts | 328° |
| 2026-05-06 19:47 | 31.27940 | 34.73097 | 777 ft | 70 kts | 316° |
| 2026-05-06 19:47 | 31.28276 | 34.72731 | 667 ft | 56 kts | 319° |
| 2026-05-06 19:48 | 31.28456 | 34.72542 | 656 ft | 14 kts | 315° |
| 2026-05-06 19:48 | 31.28513 | 34.72535 | 655 ft | 4 kts | 345° |
| 2026-05-06 19:48 | 31.28587 | 34.72455 | 652 ft | 21 kts | 317° |
| 2026-05-06 19:48 | 31.28646 | 34.72408 | 650 ft | 2 kts | 31° |
| 2026-05-06 19:49 | 31.28655 | 34.72412 | 650 ft | 0 kts | 180° |